Time;durP1;ratioP1;P1;durP2;ratioP2;P2;SDS_P1;SDS_P2;PMS_P1;PMS_P2;Temp;Humidity;BMP_temperature;BMP_pressure;BME280_temperature;BME280_humidity;BME280_pressure;Samples;Min_cycle;Max_cycle;Signal;HPM_P1;HPM_P2
2022/06/30 00:01:29;;;;;;;2.60;2.10;;;26.70;50.20;;;;;;4920053;29;20469;-78
2022/06/30 00:03:55;;;;;;;2.70;2.00;;;26.70;50.20;;;;;;4918787;29;20441;-77
2022/06/30 00:06:21;;;;;;;3.10;2.35;;;26.60;50.20;;;;;;4903224;29;20037;-77
2022/06/30 00:08:46;;;;;;;2.65;2.00;;;26.60;50.30;;;;;;4918869;29;20507;-79
2022/06/30 00:11:12;;;;;;;2.53;2.20;;;26.60;50.40;;;;;;4920174;29;20050;-77
2022/06/30 00:13:40;;;;;;;3.13;2.17;;;26.50;50.30;;;;;;4871838;29;20039;-77
2022/06/30 00:16:06;;;;;;;3.08;2.30;;;26.50;50.40;;;;;;4902830;29;20123;-77
2022/06/30 00:18:33;;;;;;;2.20;2.00;;;26.50;50.40;;;;;;4919190;29;20036;-77
2022/06/30 00:20:58;;;;;;;3.03;2.40;;;26.40;50.40;;;;;;4902553;29;20489;-78
2022/06/30 00:23:24;;;;;;;3.13;2.38;;;26.40;50.50;;;;;;4918582;29;20083;-77
2022/06/30 00:25:50;;;;;;;3.25;2.53;;;26.40;50.50;;;;;;4902691;29;20040;-80
2022/06/30 00:28:19;;;;;;;2.92;2.40;;;26.40;50.60;;;;;;4902983;29;20032;-77
2022/06/30 00:30:50;;;;;;;3.88;2.40;;;26.30;50.60;;;;;;4887400;29;20344;-80
2022/06/30 00:33:16;;;;;;;3.22;2.47;;;26.30;50.60;;;;;;4919944;29;20036;-77
2022/06/30 00:35:43;;;;;;;2.45;2.15;;;26.20;50.50;;;;;;4902712;29;20044;-77
2022/06/30 00:38:09;;;;;;;2.75;2.35;;;26.20;50.60;;;;;;4902855;29;20032;-77
2022/06/30 00:40:35;;;;;;;3.22;2.38;;;26.20;50.60;;;;;;4902238;29;20024;-77
2022/06/30 00:43:01;;;;;;;3.35;2.40;;;26.20;50.70;;;;;;4902670;29;20040;-77
2022/06/30 00:45:27;;;;;;;3.28;2.50;;;26.10;50.70;;;;;;4886891;29;20504;-79
2022/06/30 00:47:53;;;;;;;3.22;2.67;;;26.10;50.70;;;;;;4919327;29;20067;-80
2022/06/30 00:50:19;;;;;;;3.15;2.70;;;26.10;50.80;;;;;;4886349;29;20028;-77
2022/06/30 00:52:49;;;;;;;3.30;2.50;;;26.10;50.80;;;;;;4902640;29;20028;-77
2022/06/30 00:55:16;;;;;;;2.80;2.33;;;26.00;50.80;;;;;;4918065;29;20043;-78
2022/06/30 00:57:43;;;;;;;3.95;2.88;;;26.00;50.90;;;;;;4902161;29;20116;-77
2022/06/30 01:00:10;;;;;;;3.38;2.58;;;26.00;50.90;;;;;;4902236;29;20058;-77
2022/06/30 01:02:36;;;;;;;2.97;2.50;;;26.00;51.00;;;;;;4901818;29;20024;-77
2022/06/30 01:05:03;;;;;;;2.75;2.47;;;26.00;51.00;;;;;;4917808;29;20130;-77
2022/06/30 01:07:30;;;;;;;3.58;2.92;;;25.90;51.00;;;;;;4902086;29;20028;-77
2022/06/30 01:12:46;;;;;;;3.60;2.97;;;25.90;51.10;;;;;;4904715;29;20051;-77
2022/06/30 01:15:20;;;;;;;3.00;2.50;;;25.80;51.00;;;;;;4901785;29;20478;-77
2022/06/30 01:17:48;;;;;;;4.45;2.78;;;25.80;51.80;;;;;;4901993;29;20036;-77
2022/06/30 01:20:16;;;;;;;3.35;2.78;;;25.80;51.20;;;;;;4902434;29;20078;-77
2022/06/30 01:22:43;;;;;;;3.03;2.63;;;25.70;51.20;;;;;;4886114;29;20036;-77
2022/06/30 01:25:10;;;;;;;3.92;3.05;;;25.70;51.20;;;;;;4902556;29;20036;-77
2022/06/30 01:27:36;;;;;;;3.35;2.85;;;25.60;51.20;;;;;;4886073;29;20485;-78
2022/06/30 01:30:03;;;;;;;3.60;2.83;;;25.70;51.40;;;;;;4901851;29;20366;-78
2022/06/30 01:32:29;;;;;;;3.10;2.63;;;25.70;51.40;;;;;;4886679;29;20043;-77
2022/06/30 01:34:58;;;;;;;3.38;2.80;;;25.60;51.40;;;;;;4901788;29;20500;-77
2022/06/30 01:37:43;;;;;;;4.68;3.00;;;25.60;51.40;;;;;;4886291;29;20036;-79
2022/06/30 01:40:09;;;;;;;3.40;2.75;;;25.60;51.40;;;;;;4886357;29;20037;-77
2022/06/30 01:42:35;;;;;;;4.60;3.50;;;25.50;51.40;;;;;;4870492;29;20160;-78
2022/06/30 01:45:00;;;;;;;4.50;3.33;;;25.50;51.40;;;;;;4870316;29;20071;-77
2022/06/30 01:47:26;;;;;;;4.05;2.95;;;25.50;51.50;;;;;;4901228;29;20595;-76
2022/06/30 01:49:52;;;;;;;3.75;3.05;;;25.50;51.60;;;;;;4901666;29;20447;-77
2022/06/30 01:52:17;;;;;;;3.10;2.80;;;25.40;51.60;;;;;;4901866;29;20466;-78
2022/06/30 01:54:43;;;;;;;3.85;2.88;;;25.40;51.60;;;;;;4917893;29;20130;-77
2022/06/30 01:57:09;;;;;;;3.88;3.20;;;25.30;51.60;;;;;;4870300;29;20066;-77
2022/06/30 01:59:34;;;;;;;3.22;2.63;;;25.30;51.60;;;;;;4886010;29;20032;-78
2022/06/30 02:02:00;;;;;;;4.53;3.22;;;25.30;51.70;;;;;;4900552;29;20032;-79
2022/06/30 02:07:10;;;;;;;3.88;3.08;;;25.20;51.80;;;;;;4916897;29;20079;-77
2022/06/30 02:09:36;;;;;;;4.10;3.05;;;25.30;51.80;;;;;;4885424;29;20021;-78
2022/06/30 02:14:46;;;;;;;4.57;3.08;;;25.20;51.90;;;;;;4887904;29;20460;-79
2022/06/30 02:17:12;;;;;;;3.45;3.15;;;25.10;51.80;;;;;;4901076;29;20029;-78
2022/06/30 02:19:38;;;;;;;3.72;3.25;;;25.10;51.90;;;;;;4869020;29;20040;-77
2022/06/30 02:22:04;;;;;;;3.78;2.90;;;25.10;52.00;;;;;;4900709;29;20044;-78
2022/06/30 02:24:30;;;;;;;4.20;3.67;;;25.10;52.00;;;;;;4885105;29;20039;-78
2022/06/30 02:26:55;;;;;;;4.40;3.30;;;25.10;52.10;;;;;;4885184;29;20036;-78
2022/06/30 02:29:21;;;;;;;4.45;3.35;;;25.00;52.10;;;;;;4884800;29;20032;-79
2022/06/30 02:31:47;;;;;;;4.25;3.22;;;25.00;52.10;;;;;;4917684;29;20036;-77
2022/06/30 02:34:13;;;;;;;3.38;2.90;;;25.00;52.10;;;;;;4869709;29;20111;-77
2022/06/30 02:36:41;;;;;;;4.03;3.08;;;24.90;52.10;;;;;;4885124;29;20138;-78
2022/06/30 02:39:07;;;;;;;3.60;2.92;;;24.90;52.20;;;;;;4900674;29;20140;-78
2022/06/30 02:41:33;;;;;;;4.70;3.42;;;24.90;52.20;;;;;;4900564;29;20100;-78
2022/06/30 02:43:59;;;;;;;4.55;3.53;;;24.80;52.20;;;;;;4869480;29;20028;-77
2022/06/30 02:46:24;;;;;;;4.10;3.22;;;24.80;52.20;;;;;;4869623;29;20131;-77
2022/06/30 02:48:50;;;;;;;3.75;3.35;;;24.80;52.30;;;;;;4900760;29;20032;-77
2022/06/30 02:51:16;;;;;;;4.35;3.53;;;24.80;52.40;;;;;;4900200;29;20036;-77
2022/06/30 02:53:42;;;;;;;4.53;3.67;;;24.80;52.40;;;;;;4885233;29;20032;-76
2022/06/30 02:56:08;;;;;;;4.95;3.45;;;24.70;52.40;;;;;;4899973;29;20040;-77
2022/06/30 02:58:34;;;;;;;4.32;3.38;;;24.70;52.50;;;;;;4900140;29;20028;-77
2022/06/30 03:01:00;;;;;;;4.55;3.85;;;24.70;52.50;;;;;;4884588;29;20499;-77
2022/06/30 03:03:25;;;;;;;4.88;3.83;;;24.70;52.60;;;;;;4900030;29;20434;-78
2022/06/30 03:05:51;;;;;;;4.03;3.50;;;24.60;52.60;;;;;;4899780;29;20135;-77
2022/06/30 03:08:17;;;;;;;4.50;3.17;;;24.60;52.60;;;;;;4884272;29;20112;-78
2022/06/30 03:10:42;;;;;;;4.60;3.80;;;24.60;52.60;;;;;;4899972;29;20434;-77
2022/06/30 03:13:08;;;;;;;4.57;3.67;;;24.60;52.70;;;;;;4884408;29;20032;-77
2022/06/30 03:15:34;;;;;;;4.25;3.38;;;24.50;53.30;;;;;;4900308;29;20127;-76
2022/06/30 03:18:00;;;;;;;4.30;3.25;;;24.50;52.70;;;;;;4869047;29;20032;-78
2022/06/30 03:20:26;;;;;;;3.80;3.13;;;24.50;52.80;;;;;;4868793;29;20532;-76
2022/06/30 03:22:51;;;;;;;4.88;3.70;;;24.40;52.80;;;;;;4884107;29;20040;-77
2022/06/30 03:25:17;;;;;;;3.83;3.22;;;24.40;52.80;;;;;;4900060;29;20047;-77
2022/06/30 03:27:43;;;;;;;4.38;3.38;;;24.40;52.90;;;;;;4884243;29;20031;-77
2022/06/30 03:30:09;;;;;;;4.30;3.47;;;24.40;52.90;;;;;;4900339;29;20059;-77
2022/06/30 03:32:35;;;;;;;4.57;3.80;;;24.40;53.00;;;;;;4899723;29;20039;-77
2022/06/30 03:35:01;;;;;;;3.97;3.38;;;24.30;53.00;;;;;;4900032;29;20045;-77
2022/06/30 03:37:27;;;;;;;4.28;3.60;;;24.30;53.00;;;;;;4900169;29;20477;-78
2022/06/30 03:39:52;;;;;;;4.40;3.65;;;24.30;53.10;;;;;;4868819;29;20040;-78
2022/06/30 03:42:18;;;;;;;4.53;3.80;;;24.20;53.10;;;;;;4884298;29;20039;-76
2022/06/30 03:44:44;;;;;;;4.10;3.30;;;24.20;53.10;;;;;;4869497;29;20378;-78
2022/06/30 03:47:09;;;;;;;4.13;3.42;;;24.20;53.20;;;;;;4916585;29;20040;-77
2022/06/30 03:49:35;;;;;;;4.60;3.47;;;24.20;53.20;;;;;;4899614;29;20032;-78
2022/06/30 03:52:01;;;;;;;4.50;3.70;;;24.20;53.30;;;;;;4899663;29;20070;-77
2022/06/30 03:54:27;;;;;;;4.45;3.67;;;24.20;53.30;;;;;;4883986;29;20051;-78
2022/06/30 03:56:53;;;;;;;5.03;3.85;;;24.10;53.30;;;;;;4899560;29;20048;-76
2022/06/30 03:59:19;;;;;;;4.30;3.58;;;24.10;53.30;;;;;;4915385;29;20136;-77
2022/06/30 04:01:45;;;;;;;4.00;3.42;;;24.10;53.40;;;;;;4868547;29;20451;-77
2022/06/30 04:04:11;;;;;;;5.10;3.97;;;24.00;53.40;;;;;;4899958;29;20032;-77
2022/06/30 04:06:36;;;;;;;3.72;3.10;;;24.00;53.30;;;;;;4883986;29;20036;-77
2022/06/30 04:09:02;;;;;;;4.10;3.45;;;24.00;53.40;;;;;;4868275;29;20047;-78
2022/06/30 04:11:28;;;;;;;4.32;3.72;;;24.00;53.50;;;;;;4899631;29;20469;-78
2022/06/30 04:13:54;;;;;;;3.90;3.50;;;24.00;53.50;;;;;;4884289;29;20036;-77
2022/06/30 04:16:19;;;;;;;4.90;4.00;;;24.00;53.50;;;;;;4899851;29;20457;-76
2022/06/30 04:18:45;;;;;;;4.90;4.03;;;23.90;53.50;;;;;;4899527;29;20034;-77
2022/06/30 04:21:13;;;;;;;4.95;4.25;;;23.90;53.60;;;;;;4883678;29;20386;-77
2022/06/30 04:23:39;;;;;;;4.75;3.90;;;23.90;53.60;;;;;;4899654;29;20517;-76
2022/06/30 04:26:04;;;;;;;4.88;3.75;;;23.90;53.60;;;;;;4886053;29;20039;-77
2022/06/30 04:28:30;;;;;;;4.70;4.03;;;23.80;53.60;;;;;;4902446;29;20036;-78
2022/06/30 04:33:40;;;;;;;5.00;4.03;;;23.80;53.70;;;;;;4919135;29;20135;-76
2022/06/30 04:36:06;;;;;;;4.25;3.80;;;23.80;53.70;;;;;;4918131;29;20119;-76
2022/06/30 04:38:32;;;;;;;4.85;3.90;;;23.80;53.80;;;;;;4887367;29;20043;-77
2022/06/30 04:43:42;;;;;;;5.05;4.20;;;23.70;53.80;;;;;;4918268;29;20044;-76
2022/06/30 04:46:07;;;;;;;5.22;3.80;;;23.80;53.80;;;;;;4886675;29;20092;-76
2022/06/30 04:48:33;;;;;;;4.43;3.72;;;23.70;53.90;;;;;;4919016;29;20032;-78
2022/06/30 04:50:59;;;;;;;5.45;4.30;;;23.70;53.90;;;;;;4902005;29;20477;-79
2022/06/30 04:53:25;;;;;;;5.30;4.38;;;23.70;54.00;;;;;;4871600;29;20066;-79
2022/06/30 04:55:51;;;;;;;5.45;4.43;;;23.70;54.00;;;;;;4887575;29;20041;-77
2022/06/30 04:58:16;;;;;;;5.15;4.00;;;23.70;54.00;;;;;;4919167;29;20029;-78
2022/06/30 05:00:42;;;;;;;4.93;4.30;;;23.70;54.00;;;;;;4887269;29;20099;-78
2022/06/30 05:03:08;;;;;;;4.80;4.00;;;23.70;54.00;;;;;;4918175;29;20115;-78
2022/06/30 05:05:33;;;;;;;4.72;3.90;;;23.60;54.00;;;;;;4871291;29;20036;-77
2022/06/30 05:07:59;;;;;;;4.63;4.10;;;23.60;54.00;;;;;;4918356;29;20032;-78
2022/06/30 05:10:25;;;;;;;5.68;4.38;;;23.60;54.10;;;;;;4886706;29;20036;-78
2022/06/30 05:12:50;;;;;;;5.30;4.40;;;23.60;54.10;;;;;;4902226;29;20043;-78
2022/06/30 05:15:16;;;;;;;5.28;4.18;;;23.60;54.10;;;;;;4917779;29;20623;-78
2022/06/30 05:17:42;;;;;;;5.30;4.57;;;23.60;54.20;;;;;;4886352;29;20028;-83
2022/06/30 05:20:08;;;;;;;5.22;4.13;;;23.60;54.10;;;;;;4901409;29;20058;-79
2022/06/30 05:22:34;;;;;;;5.28;4.35;;;23.60;54.20;;;;;;4871485;29;20044;-79
2022/06/30 05:27:46;;;;;;;5.25;4.38;;;23.60;54.20;;;;;;4904840;29;20043;-78
2022/06/30 05:30:14;;;;;;;5.22;4.50;;;23.60;54.20;;;;;;4917597;29;20024;-79
2022/06/30 05:32:40;;;;;;;4.43;4.00;;;23.60;54.30;;;;;;4901800;29;20043;-80
2022/06/30 05:35:06;;;;;;;4.88;4.20;;;23.60;54.30;;;;;;4886662;29;20448;-80
2022/06/30 05:37:32;;;;;;;4.97;4.07;;;23.50;54.20;;;;;;4884878;29;20128;-80
2022/06/30 05:39:58;;;;;;;4.95;4.05;;;23.60;54.30;;;;;;4885872;29;20056;-79
2022/06/30 05:42:23;;;;;;;5.40;4.63;;;23.60;54.30;;;;;;4916983;29;20115;-79
2022/06/30 05:44:49;;;;;;;6.45;4.68;;;23.60;54.40;;;;;;4901741;29;20524;-80
2022/06/30 05:47:15;;;;;;;4.88;4.07;;;23.60;54.40;;;;;;4901870;29;20040;-80
2022/06/30 05:49:41;;;;;;;5.18;4.20;;;23.60;54.50;;;;;;4918429;29;20095;-79
2022/06/30 05:52:07;;;;;;;5.38;4.13;;;23.60;54.40;;;;;;4885551;29;20073;-79
2022/06/30 05:54:32;;;;;;;4.90;4.18;;;23.60;54.50;;;;;;4869749;29;20032;-80
2022/06/30 05:56:58;;;;;;;5.25;4.40;;;23.60;54.50;;;;;;4869921;29;20032;-79
2022/06/30 05:59:24;;;;;;;5.82;4.57;;;23.60;54.50;;;;;;4918464;29;20040;-80
2022/06/30 06:01:49;;;;;;;5.90;4.28;;;23.60;54.50;;;;;;4918005;29;20039;-79
2022/06/30 06:04:15;;;;;;;5.78;5.03;;;23.60;54.50;;;;;;4885296;29;20385;-80
2022/06/30 06:06:41;;;;;;;6.18;4.78;;;23.60;54.50;;;;;;4917528;29;20036;-79
2022/06/30 06:09:06;;;;;;;5.55;4.63;;;23.60;54.60;;;;;;4885849;29;20036;-79
2022/06/30 06:11:32;;;;;;;5.28;4.45;;;23.60;54.60;;;;;;4869825;29;20034;-81
2022/06/30 06:13:58;;;;;;;5.57;4.63;;;23.60;54.60;;;;;;4885234;29;20369;-80
2022/06/30 06:16:24;;;;;;;5.82;4.82;;;23.60;54.60;;;;;;4885508;29;20194;-80
2022/06/30 06:18:51;;;;;;;5.90;4.72;;;23.60;54.70;;;;;;4885302;29;20079;-80
2022/06/30 06:21:17;;;;;;;5.30;4.57;;;23.60;54.70;;;;;;4917432;29;20136;-80
2022/06/30 06:23:43;;;;;;;6.25;4.80;;;23.60;54.70;;;;;;4917190;29;20473;-80
2022/06/30 06:26:09;;;;;;;5.45;4.60;;;23.60;54.60;;;;;;4869992;29;20036;-80
2022/06/30 06:31:19;;;;;;;5.45;4.63;;;23.60;54.60;;;;;;4916694;29;20092;-81
2022/06/30 06:33:46;;;;;;;5.50;4.45;;;23.70;54.60;;;;;;4900665;29;20023;-79
2022/06/30 06:36:12;;;;;;;5.45;4.60;;;23.70;54.60;;;;;;4900761;29;20064;-80
2022/06/30 06:38:38;;;;;;;5.03;4.05;;;23.70;54.70;;;;;;4900813;29;20036;-80
2022/06/30 06:41:07;;;;;;;5.13;4.50;;;23.70;54.70;;;;;;4917267;29;20042;-79
2022/06/30 06:43:34;;;;;;;5.53;4.72;;;23.70;54.70;;;;;;4900326;29;20110;-80
2022/06/30 06:46:00;;;;;;;5.20;4.30;;;23.70;54.80;;;;;;4917109;29;20044;-79
2022/06/30 06:48:25;;;;;;;5.45;4.70;;;23.70;54.80;;;;;;4915961;29;20039;-79
2022/06/30 06:50:51;;;;;;;6.40;4.68;;;23.70;54.80;;;;;;4917740;29;20088;-80
2022/06/30 06:53:17;;;;;;;5.25;4.07;;;23.70;54.80;;;;;;4900758;29;20409;-82
2022/06/30 06:55:43;;;;;;;5.45;4.22;;;23.70;54.80;;;;;;4884901;29;20044;-87
2022/06/30 06:58:10;;;;;;;5.47;4.47;;;23.70;54.90;;;;;;4900355;29;20032;-80
2022/06/30 07:00:36;;;;;;;5.35;4.28;;;23.70;54.90;;;;;;4916217;29;20489;-81
2022/06/30 07:03:02;;;;;;;5.00;4.47;;;23.80;55.00;;;;;;4900025;29;20493;-79
2022/06/30 07:05:28;;;;;;;6.43;5.00;;;23.80;54.90;;;;;;4869297;29;20501;-84
2022/06/30 07:08:01;;;;;;;5.88;4.32;;;23.80;54.90;;;;;;4900341;29;20069;-81
2022/06/30 07:10:28;;;;;;;5.53;4.47;;;23.80;55.00;;;;;;4869599;29;20032;-85
2022/06/30 07:12:54;;;;;;;5.05;4.07;;;23.80;55.00;;;;;;4916867;29;20028;-84
2022/06/30 07:15:21;;;;;;;5.28;4.35;;;23.80;54.90;;;;;;4900395;29;20135;-83
2022/06/30 07:17:48;;;;;;;4.90;3.90;;;23.80;54.90;;;;;;4900648;29;20032;-82
2022/06/30 07:20:14;;;;;;;5.03;4.05;;;23.80;54.80;;;;;;4869814;29;20501;-83
2022/06/30 07:22:40;;;;;;;4.88;4.07;;;23.90;54.80;;;;;;4870170;29;20040;-83
2022/06/30 07:25:24;;;;;;;5.85;4.38;;;23.80;54.80;;;;;;5105834;27;20501;-83
2022/06/30 07:27:50;;;;;;;5.20;4.30;;;23.90;54.80;;;;;;5068448;28;20035;-84
2022/06/30 07:30:16;;;;;;;5.35;4.32;;;23.90;54.80;;;;;;5087268;28;20020;-84
2022/06/30 07:32:42;;;;;;;5.30;4.47;;;24.00;54.80;;;;;;5066966;28;20033;-83
2022/06/30 07:35:08;;;;;;;5.70;4.32;;;24.00;54.80;;;;;;5086805;28;20119;-84
2022/06/30 07:37:40;;;;;;;5.10;4.22;;;24.00;54.80;;;;;;5070817;28;20082;-84
2022/06/30 07:40:07;;;;;;;5.40;4.40;;;24.10;54.90;;;;;;5070268;28;20418;-84
2022/06/30 07:42:33;;;;;;;5.97;4.18;;;24.10;54.70;;;;;;5072679;28;20074;-83
2022/06/30 07:44:59;;;;;;;5.28;4.28;;;24.10;54.60;;;;;;5081338;28;20035;-84
2022/06/30 07:47:25;;;;;;;4.90;4.40;;;24.20;54.70;;;;;;5072280;28;20431;-81
2022/06/30 07:49:51;;;;;;;5.30;4.40;;;24.20;54.60;;;;;;5086917;28;20245;-81
2022/06/30 07:52:17;;;;;;;6.47;4.53;;;24.30;54.60;;;;;;5087133;28;20017;-82
2022/06/30 07:54:43;;;;;;;5.93;4.22;;;24.30;54.50;;;;;;5062209;28;20128;-82
2022/06/30 07:57:09;;;;;;;5.25;4.47;;;24.40;54.50;;;;;;5102074;28;20090;-82
2022/06/30 07:59:35;;;;;;;4.65;3.90;;;24.40;54.50;;;;;;5096641;28;20038;-82
2022/06/30 08:02:01;;;;;;;5.35;4.30;;;24.50;54.50;;;;;;5070053;28;20048;-81
2022/06/30 08:04:27;;;;;;;4.60;4.00;;;24.60;54.50;;;;;;5081455;28;20074;-83
2022/06/30 08:06:53;;;;;;;5.18;4.07;;;24.60;54.40;;;;;;5077392;28;20031;-84
2022/06/30 08:09:19;;;;;;;5.03;4.32;;;24.70;54.30;;;;;;5075027;28;20024;-81
2022/06/30 08:11:45;;;;;;;4.70;3.80;;;24.80;54.30;;;;;;5080214;28;20036;-84
2022/06/30 08:14:11;;;;;;;4.85;4.03;;;24.80;54.20;;;;;;5069106;28;20505;-80
2022/06/30 08:16:36;;;;;;;5.32;4.25;;;24.90;54.20;;;;;;5073823;28;20028;-81
2022/06/30 08:19:03;;;;;;;4.75;3.78;;;25.00;54.10;;;;;;5058071;28;20035;-82
2022/06/30 08:21:29;;;;;;;5.68;4.57;;;25.10;54.10;;;;;;5094677;28;20020;-84
2022/06/30 08:23:55;;;;;;;5.28;4.07;;;25.10;54.00;;;;;;5083108;28;20071;-81
2022/06/30 08:26:21;;;;;;;5.15;4.20;;;25.10;53.90;;;;;;5092728;28;20116;-82
2022/06/30 08:28:47;;;;;;;4.90;4.07;;;25.20;54.60;;;;;;5084783;28;20024;-82
2022/06/30 08:31:15;;;;;;;5.05;4.55;;;25.40;54.00;;;;;;5094834;28;20082;-83
2022/06/30 08:33:41;;;;;;;6.93;4.50;;;25.40;53.90;;;;;;5100389;28;20032;-82
2022/06/30 08:36:08;;;;;;;6.05;4.40;;;25.50;53.90;;;;;;5081915;28;20024;-83
2022/06/30 08:38:34;;;;;;;4.80;4.07;;;25.50;53.90;;;;;;5061339;28;20483;-81
2022/06/30 08:44:05;;;;;;;4.67;3.67;;;25.70;53.90;;;;;;5010982;28;20133;-82
2022/06/30 08:46:33;;;;;;;4.55;3.83;;;25.70;53.60;;;;;;5017845;28;20041;-83
2022/06/30 08:48:59;;;;;;;5.22;4.40;;;25.90;53.80;;;;;;5048664;28;20032;-81
2022/06/30 08:51:28;;;;;;;5.00;4.10;;;25.90;53.70;;;;;;5062703;28;20366;-82
2022/06/30 08:54:00;;;;;;;5.03;4.30;;;26.00;53.80;;;;;;5075615;28;20028;-82
2022/06/30 08:56:34;;;;;;;5.32;3.92;;;26.10;53.70;;;;;;5082264;28;20036;-82
2022/06/30 08:59:05;;;;;;;5.03;3.92;;;26.20;53.70;;;;;;5084306;28;20027;-83
2022/06/30 09:01:31;;;;;;;4.63;3.60;;;26.20;53.60;;;;;;5067178;28;20024;-82
2022/06/30 09:03:57;;;;;;;5.10;3.90;;;26.30;53.50;;;;;;5062085;28;20033;-83
2022/06/30 09:06:23;;;;;;;4.90;3.65;;;26.40;53.50;;;;;;5054671;28;20178;-82
2022/06/30 09:08:50;;;;;;;4.45;3.38;;;26.50;53.50;;;;;;5060831;28;20169;-83
2022/06/30 09:11:16;;;;;;;3.90;3.33;;;26.50;53.40;;;;;;5064524;28;20021;-83
2022/06/30 09:13:48;;;;;;;4.22;3.55;;;26.60;53.40;;;;;;5054789;28;20048;-82
2022/06/30 09:16:14;;;;;;;4.32;3.10;;;26.70;53.40;;;;;;5080856;28;20384;-82
2022/06/30 09:18:40;;;;;;;4.65;2.90;;;26.80;53.30;;;;;;5059612;28;20016;-83
2022/06/30 09:21:18;;;;;;;3.75;2.95;;;26.90;53.30;;;;;;5085532;28;20101;-78
2022/06/30 09:23:46;;;;;;;4.95;3.17;;;26.90;53.30;;;;;;5060211;28;20046;-83
2022/06/30 09:26:23;;;;;;;4.00;3.00;;;27.00;53.20;;;;;;5077709;28;20134;-84
2022/06/30 09:28:53;;;;;;;4.57;2.75;;;27.10;53.10;;;;;;5059218;28;20113;-83
2022/06/30 09:31:31;;;;;;;3.63;2.75;;;27.20;53.10;;;;;;5055073;28;20036;-84
2022/06/30 09:34:20;;;;;;;3.78;2.40;;;27.20;53.10;;;;;;5082009;28;20031;-83
2022/06/30 09:36:51;;;;;;;3.25;2.40;;;27.30;53.10;;;;;;5079921;28;20154;-89
2022/06/30 09:39:19;;;;;;;3.25;2.40;;;27.40;53.00;;;;;;5061484;28;20036;-83
2022/06/30 09:41:47;;;;;;;3.30;2.30;;;27.50;53.00;;;;;;5055473;28;20024;-81
2022/06/30 09:44:15;;;;;;;2.60;2.10;;;27.50;53.00;;;;;;5073757;28;20035;-82
2022/06/30 09:47:01;;;;;;;3.35;2.15;;;27.60;52.90;;;;;;5055607;28;20353;-81
2022/06/30 09:49:28;;;;;;;2.47;2.08;;;27.70;53.00;;;;;;5069681;28;20525;-80
2022/06/30 09:51:54;;;;;;;2.90;1.98;;;27.80;52.90;;;;;;5077425;28;20028;-80
2022/06/30 09:54:20;;;;;;;3.70;2.40;;;27.90;52.90;;;;;;5079925;28;20491;-82
2022/06/30 09:57:02;;;;;;;2.63;1.90;;;27.90;52.80;;;;;;5073392;28;20020;-80
2022/06/30 09:59:28;;;;;;;2.10;1.83;;;28.00;52.90;;;;;;5066148;28;20435;-81
2022/06/30 10:01:55;;;;;;;2.70;1.83;;;28.10;52.70;;;;;;5063652;28;20024;-82
2022/06/30 10:04:21;;;;;;;2.60;1.90;;;28.20;52.70;;;;;;5072080;28;20032;-80
2022/06/30 10:06:47;;;;;;;2.30;1.70;;;28.20;52.70;;;;;;5063438;28;20097;-82
2022/06/30 10:09:17;;;;;;;2.63;1.63;;;28.30;52.60;;;;;;5071822;28;20396;-80
2022/06/30 10:11:47;;;;;;;2.03;1.70;;;28.40;52.60;;;;;;5049788;28;20568;-82
2022/06/30 10:14:15;;;;;;;2.40;1.98;;;28.50;52.60;;;;;;5074785;28;20032;-82
2022/06/30 10:16:42;;;;;;;2.50;1.63;;;28.60;52.80;;;;;;5055432;28;20024;-82
2022/06/30 10:19:12;;;;;;;2.00;1.50;;;28.60;52.50;;;;;;5070764;28;20101;-81
2022/06/30 10:21:40;;;;;;;2.42;1.48;;;28.70;52.50;;;;;;5075690;28;20035;-80
2022/06/30 10:24:06;;;;;;;1.88;1.58;;;28.70;52.40;;;;;;5069931;28;20078;-80
2022/06/30 10:27:16;;;;;;;2.50;1.42;;;28.90;52.40;;;;;;5053415;28;20102;-81
2022/06/30 10:29:23;;;;;;;2.28;1.50;;;28.90;52.40;;;;;;5078044;28;20028;-81
2022/06/30 10:32:16;;;;;;;1.73;1.45;;;29.00;52.50;;;;;;5057202;28;20061;-80
2022/06/30 10:34:55;;;;;;;1.70;1.40;;;29.10;52.60;;;;;;5077920;28;20044;-80
2022/06/30 10:37:33;;;;;;;1.63;1.20;;;29.20;52.40;;;;;;5068201;28;20115;-78
2022/06/30 10:40:03;;;;;;;1.98;1.40;;;29.30;52.40;;;;;;5070441;28;20453;-77
2022/06/30 10:42:44;;;;;;;1.60;1.25;;;29.30;52.30;;;;;;5070336;28;20040;-81
2022/06/30 10:45:28;;;;;;;2.65;1.50;;;29.40;52.40;;;;;;5053756;28;20086;-80
2022/06/30 10:48:05;;;;;;;;;;;29.50;52.30;;;;;;5064753;28;20066;-80
2022/06/30 10:50:36;;;;;;;1.58;1.13;;;29.60;52.20;;;;;;5070458;28;19908;-87
2022/06/30 10:53:04;;;;;;;3.35;1.38;;;29.60;52.10;;;;;;5070920;28;20173;-83
2022/06/30 10:55:50;;;;;;;1.63;1.48;;;29.70;52.20;;;;;;5072407;28;20036;-82
2022/06/30 10:58:16;;;;;;;2.67;1.20;;;29.70;52.20;;;;;;5054068;28;20029;-81
2022/06/30 11:00:47;;;;;;;2.53;1.50;;;29.90;52.20;;;;;;5068056;28;20264;-77
2022/06/30 11:03:37;;;;;;;1.58;1.33;;;29.90;52.20;;;;;;5068822;28;20120;-78
2022/06/30 11:06:06;;;;;;;1.80;1.25;;;30.00;52.20;;;;;;5081894;28;20032;-81
2022/06/30 11:08:47;;;;;;;1.73;1.10;;;30.10;52.20;;;;;;5052231;28;20454;-81
2022/06/30 11:11:22;;;;;;;2.17;1.13;;;30.20;52.20;;;;;;5069783;28;20078;-81
2022/06/30 11:14:03;;;;;;;2.47;1.10;;;30.20;52.10;;;;;;5077940;28;20025;-80
2022/06/30 11:16:33;;;;;;;2.80;1.58;;;30.20;52.10;;;;;;5070012;28;20487;-80
2022/06/30 11:19:00;;;;;;;2.95;1.40;;;30.30;52.10;;;;;;5055661;28;20376;-79
2022/06/30 11:21:29;;;;;;;2.50;1.40;;;30.40;52.20;;;;;;5068959;28;20131;-79
2022/06/30 11:24:00;;;;;;;2.38;1.30;;;30.40;52.20;;;;;;5072498;28;20097;-81
2022/06/30 11:29:14;;;;;;;3.00;1.38;;;30.50;52.40;;;;;;5075287;28;20043;-80
2022/06/30 11:31:41;;;;;;;1.60;1.25;;;30.50;52.40;;;;;;5051532;28;20110;-80
2022/06/30 11:34:15;;;;;;;1.73;1.45;;;30.60;52.40;;;;;;5051797;28;20499;-79
2022/06/30 11:36:42;;;;;;;1.90;1.30;;;30.60;52.50;;;;;;5068888;28;20032;-81
2022/06/30 11:39:19;;;;;;;1.55;1.10;;;30.60;52.60;;;;;;5067908;28;20031;-81
2022/06/30 11:41:57;;;;;;;1.80;1.20;;;30.60;52.60;;;;;;5077279;28;20024;-80
2022/06/30 11:44:41;;;;;;;1.52;1.20;;;30.70;52.70;;;;;;5070255;28;20119;-81
2022/06/30 11:47:16;;;;;;;1.67;1.10;;;30.70;52.80;;;;;;5050616;28;20108;-81
2022/06/30 11:49:45;;;;;;;0.90;0.90;;;30.70;52.90;;;;;;5068376;28;20089;-82
2022/06/30 11:52:11;;;;;;;2.08;1.40;;;30.70;53.00;;;;;;5082944;28;20055;-82
2022/06/30 11:54:38;;;;;;;1.90;1.15;;;30.70;53.00;;;;;;5071011;28;20043;-80
2022/06/30 11:57:04;;;;;;;2.20;1.30;;;30.80;53.20;;;;;;5083575;28;20032;-81
2022/06/30 11:59:29;;;;;;;2.92;1.38;;;30.80;53.20;;;;;;5067320;28;20062;-80
2022/06/30 12:02:04;;;;;;;1.70;1.15;;;30.80;53.20;;;;;;5077838;28;20068;-79
2022/06/30 12:04:30;;;;;;;2.45;1.27;;;30.90;53.30;;;;;;5068861;28;20047;-81
2022/06/30 12:06:56;;;;;;;2.08;1.38;;;30.90;53.30;;;;;;5068253;28;20035;-81
2022/06/30 12:09:22;;;;;;;1.77;1.20;;;30.90;53.90;;;;;;5075358;28;20040;-80
2022/06/30 12:11:50;;;;;;;1.70;1.20;;;30.90;53.30;;;;;;5047725;28;20035;-82
2022/06/30 12:14:15;;;;;;;1.38;0.90;;;30.90;53.30;;;;;;5077340;28;20031;-81
2022/06/30 12:16:41;;;;;;;1.23;1.02;;;30.90;53.30;;;;;;5042038;28;20036;-81
2022/06/30 12:19:07;;;;;;;1.30;1.00;;;30.90;53.40;;;;;;5059167;28;20039;-81
2022/06/30 12:21:34;;;;;;;1.30;1.10;;;30.90;53.50;;;;;;5022435;28;20035;-81
2022/06/30 12:24:01;;;;;;;1.15;1.00;;;30.90;53.50;;;;;;5058982;28;20043;-80
2022/06/30 12:26:26;;;;;;;2.40;1.40;;;30.90;53.60;;;;;;5079806;28;20067;-81
2022/06/30 12:28:55;;;;;;;1.30;1.20;;;30.90;53.50;;;;;;5041510;28;20129;-82
2022/06/30 12:31:31;;;;;;;1.85;1.02;;;30.90;53.50;;;;;;5077372;28;20047;-81
2022/06/30 12:33:58;;;;;;;1.35;1.13;;;30.90;53.60;;;;;;5061342;28;20048;-79
2022/06/30 12:36:29;;;;;;;2.08;1.17;;;31.00;53.60;;;;;;5055705;28;20033;-81
2022/06/30 12:38:55;;;;;;;1.55;1.00;;;31.00;53.80;;;;;;5058752;28;20737;-80
2022/06/30 12:41:23;;;;;;;1.20;1.10;;;31.00;53.80;;;;;;5054809;28;20036;-80
2022/06/30 12:43:50;;;;;;;2.15;0.95;;;31.00;53.90;;;;;;5080668;28;20032;-81
2022/06/30 12:46:19;;;;;;;2.95;1.30;;;31.00;53.70;;;;;;5062561;28;20032;-82
2022/06/30 12:48:54;;;;;;;1.73;1.08;;;31.00;53.60;;;;;;5073903;28;20041;-80
2022/06/30 12:51:32;;;;;;;1.60;1.20;;;31.00;53.50;;;;;;5081965;28;20020;-82
2022/06/30 12:54:05;;;;;;;1.60;1.10;;;31.10;53.60;;;;;;5079718;28;20094;-81
2022/06/30 12:56:32;;;;;;;1.88;1.20;;;31.10;53.50;;;;;;5081637;28;20020;-80
2022/06/30 12:59:09;;;;;;;2.38;1.35;;;31.10;53.30;;;;;;5064598;28;20032;-80
2022/06/30 13:01:44;;;;;;;1.23;1.10;;;31.10;53.20;;;;;;5078941;28;20032;-81
2022/06/30 13:04:25;;;;;;;1.23;1.13;;;31.10;53.00;;;;;;5082188;28;20027;-80
2022/06/30 13:06:53;;;;;;;2.08;1.20;;;31.10;53.00;;;;;;5072516;28;20031;-81
2022/06/30 13:09:21;;;;;;;1.38;1.00;;;31.10;52.90;;;;;;5072598;28;20027;-80
2022/06/30 13:11:50;;;;;;;1.27;1.00;;;31.10;52.90;;;;;;5060915;28;20483;-80
2022/06/30 13:14:19;;;;;;;1.30;1.20;;;31.10;52.80;;;;;;5062997;28;20024;-80
2022/06/30 13:16:45;;;;;;;1.55;1.05;;;31.10;52.80;;;;;;5070534;28;20145;-80